Terminal Aerodrome Forecast
Issued by NWS

Home | Current Version | Previous Version | Text Only | Print | Product List | Glossary On
Versions: 1 2 3 4 5 6 7 8 9 10 11 12 13 14 15 16 17 18 19 20 21 22 23 24
000
FTUS43 KDVN 300520
TAFCID
TAF
KCID 300520Z 3006/3106 25009KT P6SM VCSH SCT150 BKN250
      TEMPO 3006/3008 -SHRA BKN025 OVC090
     FM300900 24005KT 5SM BR VCSH BKN025 OVC050
     FM301200 35014G23KT 6SM BR VCSH OVC015
     FM301900 01015G25KT P6SM SCT020 OVC030
     FM310000 02012KT P6SM SCT030=

USA.gov is the U.S. government's official web portal to all federal, state and local government web resources and services.